sensor_id;sensor_type;location;lat;lon;timestamp;temperature;humidity
44533;DHT22;48673;53.016;-2.258;2022-09-16T00:01:10;11.70;77.00
44533;DHT22;48673;53.016;-2.258;2022-09-16T00:03:39;11.60;77.00
44533;DHT22;48673;53.016;-2.258;2022-09-16T00:06:16;11.50;77.00
44533;DHT22;48673;53.016;-2.258;2022-09-16T00:08:45;11.50;77.10
44533;DHT22;48673;53.016;-2.258;2022-09-16T00:11:17;11.50;77.10
44533;DHT22;48673;53.016;-2.258;2022-09-16T00:13:45;11.50;77.10
44533;DHT22;48673;53.016;-2.258;2022-09-16T00:16:22;11.50;77.20
44533;DHT22;48673;53.016;-2.258;2022-09-16T00:18:57;11.50;77.30
44533;DHT22;48673;53.016;-2.258;2022-09-16T00:21:26;11.50;77.40
44533;DHT22;48673;53.016;-2.258;2022-09-16T00:23:55;11.50;77.40
44533;DHT22;48673;53.016;-2.258;2022-09-16T00:26:23;11.50;77.40
44533;DHT22;48673;53.016;-2.258;2022-09-16T00:28:52;11.60;77.40
44533;DHT22;48673;53.016;-2.258;2022-09-16T00:31:19;11.60;77.40
44533;DHT22;48673;53.016;-2.258;2022-09-16T00:33:47;11.60;77.30
44533;DHT22;48673;53.016;-2.258;2022-09-16T00:36:18;11.60;77.20
44533;DHT22;48673;53.016;-2.258;2022-09-16T00:38:49;11.60;77.10
44533;DHT22;48673;53.016;-2.258;2022-09-16T00:41:22;11.60;77.00
44533;DHT22;48673;53.016;-2.258;2022-09-16T00:43:55;11.60;76.90
44533;DHT22;48673;53.016;-2.258;2022-09-16T00:46:35;11.60;76.90
44533;DHT22;48673;53.016;-2.258;2022-09-16T00:49:11;11.60;77.10
44533;DHT22;48673;53.016;-2.258;2022-09-16T00:51:44;11.60;77.20
44533;DHT22;48673;53.016;-2.258;2022-09-16T00:54:15;11.60;77.20
44533;DHT22;48673;53.016;-2.258;2022-09-16T00:56:47;11.60;77.40
44533;DHT22;48673;53.016;-2.258;2022-09-16T00:59:22;11.60;77.40
44533;DHT22;48673;53.016;-2.258;2022-09-16T01:01:52;11.60;77.50
44533;DHT22;48673;53.016;-2.258;2022-09-16T01:04:27;11.60;77.50
44533;DHT22;48673;53.016;-2.258;2022-09-16T01:06:56;11.60;77.50
44533;DHT22;48673;53.016;-2.258;2022-09-16T01:09:24;11.50;77.50
44533;DHT22;48673;53.016;-2.258;2022-09-16T01:11:53;11.50;77.40
44533;DHT22;48673;53.016;-2.258;2022-09-16T01:14:22;11.60;77.40
44533;DHT22;48673;53.016;-2.258;2022-09-16T01:17:35;11.60;77.40
44533;DHT22;48673;53.016;-2.258;2022-09-16T01:20:30;11.60;77.40
44533;DHT22;48673;53.016;-2.258;2022-09-16T01:23:26;11.60;77.40
44533;DHT22;48673;53.016;-2.258;2022-09-16T01:28:47;11.50;77.90
44533;DHT22;48673;53.016;-2.258;2022-09-16T01:39:10;11.40;80.00
44533;DHT22;48673;53.016;-2.258;2022-09-16T01:42:04;11.30;80.50
44533;DHT22;48673;53.016;-2.258;2022-09-16T01:45:13;11.30;80.90
44533;DHT22;48673;53.016;-2.258;2022-09-16T01:55:53;11.00;82.80
44533;DHT22;48673;53.016;-2.258;2022-09-16T01:58:35;10.90;83.00
44533;DHT22;48673;53.016;-2.258;2022-09-16T02:01:51;10.90;83.30
44533;DHT22;48673;53.016;-2.258;2022-09-16T02:04:11;10.90;83.50
44533;DHT22;48673;53.016;-2.258;2022-09-16T02:06:41;10.90;83.70
44533;DHT22;48673;53.016;-2.258;2022-09-16T02:09:15;10.90;83.80
44533;DHT22;48673;53.016;-2.258;2022-09-16T02:11:46;10.90;84.10
44533;DHT22;48673;53.016;-2.258;2022-09-16T02:14:19;10.90;84.10
44533;DHT22;48673;53.016;-2.258;2022-09-16T02:17:08;10.90;84.10
44533;DHT22;48673;53.016;-2.258;2022-09-16T02:19:45;10.90;84.40
44533;DHT22;48673;53.016;-2.258;2022-09-16T02:22:30;10.90;84.30
44533;DHT22;48673;53.016;-2.258;2022-09-16T02:24:59;10.90;84.60
44533;DHT22;48673;53.016;-2.258;2022-09-16T02:27:29;10.90;84.60
44533;DHT22;48673;53.016;-2.258;2022-09-16T02:30:05;10.90;84.80
44533;DHT22;48673;53.016;-2.258;2022-09-16T02:32:35;10.90;84.90
44533;DHT22;48673;53.016;-2.258;2022-09-16T02:35:07;10.80;84.80
44533;DHT22;48673;53.016;-2.258;2022-09-16T02:37:40;10.80;84.80
44533;DHT22;48673;53.016;-2.258;2022-09-16T02:40:15;10.90;84.90
44533;DHT22;48673;53.016;-2.258;2022-09-16T02:42:44;10.80;84.90
44533;DHT22;48673;53.016;-2.258;2022-09-16T02:45:12;10.90;85.00
44533;DHT22;48673;53.016;-2.258;2022-09-16T02:47:57;10.90;85.10
44533;DHT22;48673;53.016;-2.258;2022-09-16T02:53:17;10.80;85.60
44533;DHT22;48673;53.016;-2.258;2022-09-16T02:56:06;10.80;85.70
44533;DHT22;48673;53.016;-2.258;2022-09-16T02:58:36;10.70;85.80
44533;DHT22;48673;53.016;-2.258;2022-09-16T03:01:04;10.70;85.80
44533;DHT22;48673;53.016;-2.258;2022-09-16T03:03:33;10.70;85.90
44533;DHT22;48673;53.016;-2.258;2022-09-16T03:06:14;10.60;86.00
44533;DHT22;48673;53.016;-2.258;2022-09-16T03:08:44;10.60;86.40
44533;DHT22;48673;53.016;-2.258;2022-09-16T03:11:28;10.60;86.60
44533;DHT22;48673;53.016;-2.258;2022-09-16T03:22:50;10.40;87.30
44533;DHT22;48673;53.016;-2.258;2022-09-16T03:28:13;10.20;87.50
44533;DHT22;48673;53.016;-2.258;2022-09-16T03:31:07;10.20;87.50
44533;DHT22;48673;53.016;-2.258;2022-09-16T03:33:46;10.20;87.70
44533;DHT22;48673;53.016;-2.258;2022-09-16T03:36:19;10.10;87.60
44533;DHT22;48673;53.016;-2.258;2022-09-16T03:38:51;10.00;87.60
44533;DHT22;48673;53.016;-2.258;2022-09-16T03:41:20;10.00;87.70
44533;DHT22;48673;53.016;-2.258;2022-09-16T03:43:56;9.90;87.80
44533;DHT22;48673;53.016;-2.258;2022-09-16T03:46:30;9.90;87.90
44533;DHT22;48673;53.016;-2.258;2022-09-16T03:48:59;9.80;88.00
44533;DHT22;48673;53.016;-2.258;2022-09-16T03:51:26;9.80;88.00
44533;DHT22;48673;53.016;-2.258;2022-09-16T03:53:54;9.60;88.10
44533;DHT22;48673;53.016;-2.258;2022-09-16T03:56:23;9.60;88.30
44533;DHT22;48673;53.016;-2.258;2022-09-16T03:58:51;9.60;88.50
44533;DHT22;48673;53.016;-2.258;2022-09-16T04:01:18;9.60;88.50
44533;DHT22;48673;53.016;-2.258;2022-09-16T04:03:47;9.50;88.50
44533;DHT22;48673;53.016;-2.258;2022-09-16T04:06:14;9.50;88.60
44533;DHT22;48673;53.016;-2.258;2022-09-16T04:08:42;9.50;88.60
44533;DHT22;48673;53.016;-2.258;2022-09-16T04:11:11;9.50;88.60
44533;DHT22;48673;53.016;-2.258;2022-09-16T04:13:38;9.50;88.70
44533;DHT22;48673;53.016;-2.258;2022-09-16T04:16:06;9.40;88.70
44533;DHT22;48673;53.016;-2.258;2022-09-16T04:18:34;9.40;88.90
44533;DHT22;48673;53.016;-2.258;2022-09-16T04:21:03;9.40;89.00
44533;DHT22;48673;53.016;-2.258;2022-09-16T04:23:31;9.40;89.10
44533;DHT22;48673;53.016;-2.258;2022-09-16T04:26:00;9.40;89.10
44533;DHT22;48673;53.016;-2.258;2022-09-16T04:28:30;9.50;89.10
44533;DHT22;48673;53.016;-2.258;2022-09-16T04:31:02;9.40;89.20
44533;DHT22;48673;53.016;-2.258;2022-09-16T04:33:31;9.50;89.10
44533;DHT22;48673;53.016;-2.258;2022-09-16T04:36:04;9.50;89.10
44533;DHT22;48673;53.016;-2.258;2022-09-16T04:38:34;9.50;89.10
44533;DHT22;48673;53.016;-2.258;2022-09-16T04:41:07;9.50;89.00
44533;DHT22;48673;53.016;-2.258;2022-09-16T04:43:35;9.40;89.00
44533;DHT22;48673;53.016;-2.258;2022-09-16T04:46:04;9.40;89.10
44533;DHT22;48673;53.016;-2.258;2022-09-16T04:48:32;9.40;89.20
44533;DHT22;48673;53.016;-2.258;2022-09-16T04:51:05;9.40;89.30
44533;DHT22;48673;53.016;-2.258;2022-09-16T04:53:33;9.30;89.40
44533;DHT22;48673;53.016;-2.258;2022-09-16T04:56:10;9.30;89.40
44533;DHT22;48673;53.016;-2.258;2022-09-16T04:58:49;9.30;89.50
44533;DHT22;48673;53.016;-2.258;2022-09-16T05:01:23;9.20;89.60
44533;DHT22;48673;53.016;-2.258;2022-09-16T05:03:52;9.20;89.70
44533;DHT22;48673;53.016;-2.258;2022-09-16T05:06:23;9.20;89.70
44533;DHT22;48673;53.016;-2.258;2022-09-16T05:08:52;9.10;89.90
44533;DHT22;48673;53.016;-2.258;2022-09-16T05:11:28;9.10;90.00
44533;DHT22;48673;53.016;-2.258;2022-09-16T05:14:01;9.10;90.10
44533;DHT22;48673;53.016;-2.258;2022-09-16T05:16:30;9.00;90.20
44533;DHT22;48673;53.016;-2.258;2022-09-16T05:19:00;9.00;90.20
44533;DHT22;48673;53.016;-2.258;2022-09-16T05:21:33;8.90;90.20
44533;DHT22;48673;53.016;-2.258;2022-09-16T05:24:04;8.90;90.30
44533;DHT22;48673;53.016;-2.258;2022-09-16T05:26:32;8.90;90.40
44533;DHT22;48673;53.016;-2.258;2022-09-16T05:29:06;8.90;90.50
44533;DHT22;48673;53.016;-2.258;2022-09-16T05:31:36;8.90;90.60
44533;DHT22;48673;53.016;-2.258;2022-09-16T05:34:16;8.90;90.70
44533;DHT22;48673;53.016;-2.258;2022-09-16T05:36:44;8.80;90.70
44533;DHT22;48673;53.016;-2.258;2022-09-16T05:39:15;8.80;90.80
44533;DHT22;48673;53.016;-2.258;2022-09-16T05:41:58;8.70;90.80
44533;DHT22;48673;53.016;-2.258;2022-09-16T05:44:27;8.70;90.80
44533;DHT22;48673;53.016;-2.258;2022-09-16T05:46:55;8.70;91.00
44533;DHT22;48673;53.016;-2.258;2022-09-16T05:49:26;8.60;90.90
44533;DHT22;48673;53.016;-2.258;2022-09-16T05:51:54;8.60;90.90
44533;DHT22;48673;53.016;-2.258;2022-09-16T05:54:21;8.60;91.00
44533;DHT22;48673;53.016;-2.258;2022-09-16T05:56:52;8.50;90.90
44533;DHT22;48673;53.016;-2.258;2022-09-16T05:59:19;8.40;90.90
44533;DHT22;48673;53.016;-2.258;2022-09-16T06:01:47;8.40;91.00
44533;DHT22;48673;53.016;-2.258;2022-09-16T06:04:15;8.40;91.10
44533;DHT22;48673;53.016;-2.258;2022-09-16T06:06:44;8.40;91.30
44533;DHT22;48673;53.016;-2.258;2022-09-16T06:09:19;8.40;91.60
44533;DHT22;48673;53.016;-2.258;2022-09-16T06:11:49;8.40;91.80
44533;DHT22;48673;53.016;-2.258;2022-09-16T06:14:18;8.60;92.00
44533;DHT22;48673;53.016;-2.258;2022-09-16T06:16:47;8.60;92.00
44533;DHT22;48673;53.016;-2.258;2022-09-16T06:19:16;8.70;91.90
44533;DHT22;48673;53.016;-2.258;2022-09-16T06:21:44;8.80;91.80
44533;DHT22;48673;53.016;-2.258;2022-09-16T06:24:15;8.90;91.70
44533;DHT22;48673;53.016;-2.258;2022-09-16T06:26:44;8.90;91.50
44533;DHT22;48673;53.016;-2.258;2022-09-16T06:29:13;9.00;91.40
44533;DHT22;48673;53.016;-2.258;2022-09-16T06:31:41;9.00;91.30
44533;DHT22;48673;53.016;-2.258;2022-09-16T06:34:14;9.00;91.30
44533;DHT22;48673;53.016;-2.258;2022-09-16T06:36:41;9.20;91.40
44533;DHT22;48673;53.016;-2.258;2022-09-16T06:39:14;9.20;91.40
44533;DHT22;48673;53.016;-2.258;2022-09-16T06:42:02;9.30;91.40
44533;DHT22;48673;53.016;-2.258;2022-09-16T06:44:39;9.40;91.20
44533;DHT22;48673;53.016;-2.258;2022-09-16T06:47:08;9.50;91.00
44533;DHT22;48673;53.016;-2.258;2022-09-16T06:49:36;9.60;90.80
44533;DHT22;48673;53.016;-2.258;2022-09-16T06:52:05;9.80;90.60
44533;DHT22;48673;53.016;-2.258;2022-09-16T06:54:32;9.90;90.30
44533;DHT22;48673;53.016;-2.258;2022-09-16T06:57:00;9.90;90.10
44533;DHT22;48673;53.016;-2.258;2022-09-16T06:59:28;9.90;89.80
44533;DHT22;48673;53.016;-2.258;2022-09-16T07:01:56;10.10;89.60
44533;DHT22;48673;53.016;-2.258;2022-09-16T07:04:24;10.10;89.30
44533;DHT22;48673;53.016;-2.258;2022-09-16T07:06:56;10.20;89.00
44533;DHT22;48673;53.016;-2.258;2022-09-16T07:09:36;10.30;88.60
44533;DHT22;48673;53.016;-2.258;2022-09-16T07:12:04;10.40;88.30
44533;DHT22;48673;53.016;-2.258;2022-09-16T07:14:32;10.40;88.00
44533;DHT22;48673;53.016;-2.258;2022-09-16T07:17:00;10.30;87.80
44533;DHT22;48673;53.016;-2.258;2022-09-16T07:19:28;10.30;87.80
44533;DHT22;48673;53.016;-2.258;2022-09-16T07:21:56;10.20;87.90
44533;DHT22;48673;53.016;-2.258;2022-09-16T07:24:24;10.20;87.80
44533;DHT22;48673;53.016;-2.258;2022-09-16T07:26:52;10.10;87.80
44533;DHT22;48673;53.016;-2.258;2022-09-16T07:29:20;10.10;88.00
44533;DHT22;48673;53.016;-2.258;2022-09-16T07:31:48;10.10;88.40
44533;DHT22;48673;53.016;-2.258;2022-09-16T07:34:15;10.20;88.60
44533;DHT22;48673;53.016;-2.258;2022-09-16T07:36:45;10.30;88.20
44533;DHT22;48673;53.016;-2.258;2022-09-16T07:39:14;10.40;87.90
44533;DHT22;48673;53.016;-2.258;2022-09-16T07:41:44;10.40;87.70
44533;DHT22;48673;53.016;-2.258;2022-09-16T07:44:12;10.40;87.40
44533;DHT22;48673;53.016;-2.258;2022-09-16T07:46:40;10.40;87.10
44533;DHT22;48673;53.016;-2.258;2022-09-16T07:49:11;10.40;86.90
44533;DHT22;48673;53.016;-2.258;2022-09-16T07:51:39;10.40;86.60
44533;DHT22;48673;53.016;-2.258;2022-09-16T07:54:09;10.40;86.20
44533;DHT22;48673;53.016;-2.258;2022-09-16T07:56:38;10.40;86.00
44533;DHT22;48673;53.016;-2.258;2022-09-16T07:59:09;10.40;85.80
44533;DHT22;48673;53.016;-2.258;2022-09-16T08:01:43;10.40;85.70
44533;DHT22;48673;53.016;-2.258;2022-09-16T08:04:11;10.50;85.50
44533;DHT22;48673;53.016;-2.258;2022-09-16T08:06:40;10.50;85.30
44533;DHT22;48673;53.016;-2.258;2022-09-16T08:09:08;10.60;85.10
44533;DHT22;48673;53.016;-2.258;2022-09-16T08:11:56;10.60;85.00
44533;DHT22;48673;53.016;-2.258;2022-09-16T08:14:23;10.60;84.80
44533;DHT22;48673;53.016;-2.258;2022-09-16T08:16:51;10.70;84.50
44533;DHT22;48673;53.016;-2.258;2022-09-16T08:19:19;10.70;84.10
44533;DHT22;48673;53.016;-2.258;2022-09-16T08:21:49;10.70;84.00
44533;DHT22;48673;53.016;-2.258;2022-09-16T08:24:17;10.80;83.80
44533;DHT22;48673;53.016;-2.258;2022-09-16T08:26:45;10.80;83.50
44533;DHT22;48673;53.016;-2.258;2022-09-16T08:29:13;10.90;83.10
44533;DHT22;48673;53.016;-2.258;2022-09-16T08:31:41;10.90;82.70
44533;DHT22;48673;53.016;-2.258;2022-09-16T08:34:09;10.90;82.50
44533;DHT22;48673;53.016;-2.258;2022-09-16T08:36:36;10.90;82.50
44533;DHT22;48673;53.016;-2.258;2022-09-16T08:39:04;10.90;82.30
44533;DHT22;48673;53.016;-2.258;2022-09-16T08:47:01;11.10;81.40
44533;DHT22;48673;53.016;-2.258;2022-09-16T08:49:34;11.10;81.00
44533;DHT22;48673;53.016;-2.258;2022-09-16T08:52:30;11.20;80.20
44533;DHT22;48673;53.016;-2.258;2022-09-16T08:55:03;11.20;79.30
44533;DHT22;48673;53.016;-2.258;2022-09-16T08:57:38;11.20;78.80
44533;DHT22;48673;53.016;-2.258;2022-09-16T09:00:19;11.20;78.50
44533;DHT22;48673;53.016;-2.258;2022-09-16T09:05:30;11.30;78.00
44533;DHT22;48673;53.016;-2.258;2022-09-16T09:13:38;11.40;76.70
44533;DHT22;48673;53.016;-2.258;2022-09-16T09:30:33;11.90;72.60
44533;DHT22;48673;53.016;-2.258;2022-09-16T09:33:17;11.90;72.60
44533;DHT22;48673;53.016;-2.258;2022-09-16T09:42:24;12.40;70.30
44533;DHT22;48673;53.016;-2.258;2022-09-16T09:47:54;12.70;68.20
44533;DHT22;48673;53.016;-2.258;2022-09-16T09:50:40;12.80;67.90
44533;DHT22;48673;53.016;-2.258;2022-09-16T09:55:42;13.10;68.20
44533;DHT22;48673;53.016;-2.258;2022-09-16T09:58:33;13.20;67.20
44533;DHT22;48673;53.016;-2.258;2022-09-16T10:01:03;13.20;66.10
44533;DHT22;48673;53.016;-2.258;2022-09-16T10:03:31;13.10;65.80
44533;DHT22;48673;53.016;-2.258;2022-09-16T10:05:59;12.90;65.20
44533;DHT22;48673;53.016;-2.258;2022-09-16T10:08:43;12.90;65.00
44533;DHT22;48673;53.016;-2.258;2022-09-16T10:11:22;12.90;64.50
44533;DHT22;48673;53.016;-2.258;2022-09-16T10:13:51;12.90;64.50
44533;DHT22;48673;53.016;-2.258;2022-09-16T10:16:30;13.00;64.90
44533;DHT22;48673;53.016;-2.258;2022-09-16T10:21:41;13.40;64.80
44533;DHT22;48673;53.016;-2.258;2022-09-16T10:26:52;13.80;63.40
44533;DHT22;48673;53.016;-2.258;2022-09-16T10:29:20;13.90;63.40
44533;DHT22;48673;53.016;-2.258;2022-09-16T10:31:48;13.90;62.90
44533;DHT22;48673;53.016;-2.258;2022-09-16T10:36:44;13.80;60.40
44533;DHT22;48673;53.016;-2.258;2022-09-16T10:39:22;13.80;60.30
44533;DHT22;48673;53.016;-2.258;2022-09-16T10:41:51;13.80;59.80
44533;DHT22;48673;53.016;-2.258;2022-09-16T10:44:30;13.70;60.10
44533;DHT22;48673;53.016;-2.258;2022-09-16T10:47:04;13.60;60.40
44533;DHT22;48673;53.016;-2.258;2022-09-16T10:49:55;13.50;60.50
44533;DHT22;48673;53.016;-2.258;2022-09-16T10:52:25;13.40;60.20
44533;DHT22;48673;53.016;-2.258;2022-09-16T10:54:54;13.40;60.40
44533;DHT22;48673;53.016;-2.258;2022-09-16T10:57:23;13.30;59.30
44533;DHT22;48673;53.016;-2.258;2022-09-16T11:06:39;13.60;60.10
44533;DHT22;48673;53.016;-2.258;2022-09-16T11:11:48;13.50;57.90
44533;DHT22;48673;53.016;-2.258;2022-09-16T11:14:48;13.60;57.60
44533;DHT22;48673;53.016;-2.258;2022-09-16T11:18:24;13.90;57.30
44533;DHT22;48673;53.016;-2.258;2022-09-16T11:26:05;14.20;54.80
44533;DHT22;48673;53.016;-2.258;2022-09-16T11:29:05;14.40;54.20
44533;DHT22;48673;53.016;-2.258;2022-09-16T11:45:55;14.40;54.10
44533;DHT22;48673;53.016;-2.258;2022-09-16T11:56:43;14.50;51.60
44533;DHT22;48673;53.016;-2.258;2022-09-16T12:08:14;14.80;51.30
44533;DHT22;48673;53.016;-2.258;2022-09-16T12:13:29;14.70;50.80
44533;DHT22;48673;53.016;-2.258;2022-09-16T12:19:13;15.10;51.30
44533;DHT22;48673;53.016;-2.258;2022-09-16T12:21:50;15.30;50.50
44533;DHT22;48673;53.016;-2.258;2022-09-16T12:24:42;15.40;50.10
44533;DHT22;48673;53.016;-2.258;2022-09-16T12:27:27;15.60;49.20
44533;DHT22;48673;53.016;-2.258;2022-09-16T12:30:16;15.60;49.20
44533;DHT22;48673;53.016;-2.258;2022-09-16T12:35:48;15.90;48.50
44533;DHT22;48673;53.016;-2.258;2022-09-16T12:38:20;16.00;48.10
44533;DHT22;48673;53.016;-2.258;2022-09-16T12:46:10;16.40;47.10
44533;DHT22;48673;53.016;-2.258;2022-09-16T13:00:16;17.40;45.70
44533;DHT22;48673;53.016;-2.258;2022-09-16T13:02:50;18.00;44.50
44533;DHT22;48673;53.016;-2.258;2022-09-16T13:05:29;18.20;44.00
44533;DHT22;48673;53.016;-2.258;2022-09-16T13:08:21;18.10;43.60
44533;DHT22;48673;53.016;-2.258;2022-09-16T13:11:05;17.50;43.40
44533;DHT22;48673;53.016;-2.258;2022-09-16T13:13:56;16.90;43.90
44533;DHT22;48673;53.016;-2.258;2022-09-16T13:16:35;16.40;44.40
44533;DHT22;48673;53.016;-2.258;2022-09-16T13:19:35;15.90;44.90
44533;DHT22;48673;53.016;-2.258;2022-09-16T13:25:00;15.70;46.80
44533;DHT22;48673;53.016;-2.258;2022-09-16T13:27:39;16.30;46.50
44533;DHT22;48673;53.016;-2.258;2022-09-16T13:35:21;17.50;42.10
44533;DHT22;48673;53.016;-2.258;2022-09-16T13:37:53;17.60;41.90
44533;DHT22;48673;53.016;-2.258;2022-09-16T13:40:27;18.20;41.10
44533;DHT22;48673;53.016;-2.258;2022-09-16T13:46:05;19.30;38.00
44533;DHT22;48673;53.016;-2.258;2022-09-16T13:48:40;19.60;36.70
44533;DHT22;48673;53.016;-2.258;2022-09-16T13:51:19;19.60;36.90
44533;DHT22;48673;53.016;-2.258;2022-09-16T13:53:49;19.70;36.60
44533;DHT22;48673;53.016;-2.258;2022-09-16T13:56:47;19.60;36.30
44533;DHT22;48673;53.016;-2.258;2022-09-16T14:03:14;20.50;35.80
44533;DHT22;48673;53.016;-2.258;2022-09-16T14:14:01;19.50;35.70
44533;DHT22;48673;53.016;-2.258;2022-09-16T14:16:33;18.90;36.50
44533;DHT22;48673;53.016;-2.258;2022-09-16T14:19:31;19.10;36.30
44533;DHT22;48673;53.016;-2.258;2022-09-16T14:22:18;19.60;36.00
44533;DHT22;48673;53.016;-2.258;2022-09-16T14:24:49;20.20;34.80
44533;DHT22;48673;53.016;-2.258;2022-09-16T14:27:39;20.70;33.90
44533;DHT22;48673;53.016;-2.258;2022-09-16T14:30:15;21.10;33.80
44533;DHT22;48673;53.016;-2.258;2022-09-16T14:32:47;21.40;32.80
44533;DHT22;48673;53.016;-2.258;2022-09-16T14:37:44;21.90;31.30
44533;DHT22;48673;53.016;-2.258;2022-09-16T14:40:18;21.90;31.40
44533;DHT22;48673;53.016;-2.258;2022-09-16T14:42:52;21.90;31.60
44533;DHT22;48673;53.016;-2.258;2022-09-16T14:45:21;21.60;31.00
44533;DHT22;48673;53.016;-2.258;2022-09-16T14:47:51;20.90;31.30
44533;DHT22;48673;53.016;-2.258;2022-09-16T14:50:23;20.50;32.00
44533;DHT22;48673;53.016;-2.258;2022-09-16T14:53:03;20.60;32.40
44533;DHT22;48673;53.016;-2.258;2022-09-16T14:55:33;20.90;32.30
44533;DHT22;48673;53.016;-2.258;2022-09-16T14:58:04;21.50;32.10
44533;DHT22;48673;53.016;-2.258;2022-09-16T15:00:45;21.90;31.50
44533;DHT22;48673;53.016;-2.258;2022-09-16T15:03:22;21.50;31.50
44533;DHT22;48673;53.016;-2.258;2022-09-16T15:05:53;20.40;32.30
44533;DHT22;48673;53.016;-2.258;2022-09-16T15:08:31;19.60;32.90
44533;DHT22;48673;53.016;-2.258;2022-09-16T15:11:11;19.90;33.10
44533;DHT22;48673;53.016;-2.258;2022-09-16T15:13:59;20.60;32.30
44533;DHT22;48673;53.016;-2.258;2022-09-16T15:16:28;21.00;31.40
44533;DHT22;48673;53.016;-2.258;2022-09-16T15:19:02;21.20;31.00
44533;DHT22;48673;53.016;-2.258;2022-09-16T15:21:35;21.20;30.20
44533;DHT22;48673;53.016;-2.258;2022-09-16T15:24:15;21.40;29.90
44533;DHT22;48673;53.016;-2.258;2022-09-16T15:26:45;21.50;29.90
44533;DHT22;48673;53.016;-2.258;2022-09-16T15:31:46;22.00;29.70
44533;DHT22;48673;53.016;-2.258;2022-09-16T15:36:46;22.50;28.40
44533;DHT22;48673;53.016;-2.258;2022-09-16T15:39:26;22.40;28.50
44533;DHT22;48673;53.016;-2.258;2022-09-16T15:42:21;21.40;29.00
44533;DHT22;48673;53.016;-2.258;2022-09-16T15:44:59;20.40;29.80
44533;DHT22;48673;53.016;-2.258;2022-09-16T15:47:33;19.70;30.60
44533;DHT22;48673;53.016;-2.258;2022-09-16T15:50:09;19.90;31.00
44533;DHT22;48673;53.016;-2.258;2022-09-16T15:53:51;20.50;30.90
44533;DHT22;48673;53.016;-2.258;2022-09-16T15:56:15;21.20;29.90
44533;DHT22;48673;53.016;-2.258;2022-09-16T15:58:47;21.60;29.70
44533;DHT22;48673;53.016;-2.258;2022-09-16T16:01:45;21.70;29.10
44533;DHT22;48673;53.016;-2.258;2022-09-16T16:04:37;21.80;28.80
44533;DHT22;48673;53.016;-2.258;2022-09-16T16:07:05;21.70;28.90
44533;DHT22;48673;53.016;-2.258;2022-09-16T16:09:35;21.10;29.80
44533;DHT22;48673;53.016;-2.258;2022-09-16T16:12:06;20.50;30.60
44533;DHT22;48673;53.016;-2.258;2022-09-16T16:14:35;20.50;31.40
44533;DHT22;48673;53.016;-2.258;2022-09-16T16:17:14;20.80;30.70
44533;DHT22;48673;53.016;-2.258;2022-09-16T16:19:45;20.90;30.50
44533;DHT22;48673;53.016;-2.258;2022-09-16T16:22:14;21.40;30.30
44533;DHT22;48673;53.016;-2.258;2022-09-16T16:24:43;21.50;29.80
44533;DHT22;48673;53.016;-2.258;2022-09-16T16:27:11;21.20;30.30
44533;DHT22;48673;53.016;-2.258;2022-09-16T16:29:39;21.00;30.90
44533;DHT22;48673;53.016;-2.258;2022-09-16T16:35:23;19.60;32.00
44533;DHT22;48673;53.016;-2.258;2022-09-16T16:37:51;18.40;33.10
44533;DHT22;48673;53.016;-2.258;2022-09-16T16:40:18;17.50;34.20
44533;DHT22;48673;53.016;-2.258;2022-09-16T16:43:42;17.40;34.80
44533;DHT22;48673;53.016;-2.258;2022-09-16T16:46:15;17.50;35.40
44533;DHT22;48673;53.016;-2.258;2022-09-16T16:49:07;18.20;34.90
44533;DHT22;48673;53.016;-2.258;2022-09-16T16:51:37;18.90;34.30
44533;DHT22;48673;53.016;-2.258;2022-09-16T16:54:10;19.70;33.70
44533;DHT22;48673;53.016;-2.258;2022-09-16T16:56:42;20.40;32.60
44533;DHT22;48673;53.016;-2.258;2022-09-16T16:59:10;20.90;31.70
44533;DHT22;48673;53.016;-2.258;2022-09-16T17:01:39;21.30;31.10
44533;DHT22;48673;53.016;-2.258;2022-09-16T17:04:15;21.50;30.60
44533;DHT22;48673;53.016;-2.258;2022-09-16T17:06:51;21.40;30.10
44533;DHT22;48673;53.016;-2.258;2022-09-16T17:09:43;20.90;30.40
44533;DHT22;48673;53.016;-2.258;2022-09-16T17:12:24;20.90;30.70
44533;DHT22;48673;53.016;-2.258;2022-09-16T17:14:54;21.00;30.90
44533;DHT22;48673;53.016;-2.258;2022-09-16T17:17:27;21.10;30.90
44533;DHT22;48673;53.016;-2.258;2022-09-16T17:20:23;20.60;31.00
44533;DHT22;48673;53.016;-2.258;2022-09-16T17:22:58;19.70;32.10
44533;DHT22;48673;53.016;-2.258;2022-09-16T17:25:29;18.80;33.30
44533;DHT22;48673;53.016;-2.258;2022-09-16T17:31:28;18.10;34.90
44533;DHT22;48673;53.016;-2.258;2022-09-16T17:34:03;17.70;35.70
44533;DHT22;48673;53.016;-2.258;2022-09-16T17:40:23;17.90;35.70
44533;DHT22;48673;53.016;-2.258;2022-09-16T17:43:03;18.10;35.40
44533;DHT22;48673;53.016;-2.258;2022-09-16T17:45:39;18.40;35.10
44533;DHT22;48673;53.016;-2.258;2022-09-16T17:48:07;18.80;34.70
44533;DHT22;48673;53.016;-2.258;2022-09-16T17:50:37;19.20;34.30
44533;DHT22;48673;53.016;-2.258;2022-09-16T17:53:06;19.40;34.10
44533;DHT22;48673;53.016;-2.258;2022-09-16T17:55:36;19.60;33.90
44533;DHT22;48673;53.016;-2.258;2022-09-16T17:58:13;19.60;33.80
44533;DHT22;48673;53.016;-2.258;2022-09-16T18:00:43;19.50;33.80
44533;DHT22;48673;53.016;-2.258;2022-09-16T18:03:20;19.20;34.20
44533;DHT22;48673;53.016;-2.258;2022-09-16T18:05:51;18.60;34.90
44533;DHT22;48673;53.016;-2.258;2022-09-16T18:08:21;17.90;36.00
44533;DHT22;48673;53.016;-2.258;2022-09-16T18:10:55;17.10;37.20
44533;DHT22;48673;53.016;-2.258;2022-09-16T18:13:23;16.50;38.40
44533;DHT22;48673;53.016;-2.258;2022-09-16T18:16:00;16.10;39.40
44533;DHT22;48673;53.016;-2.258;2022-09-16T18:18:29;15.80;40.20
44533;DHT22;48673;53.016;-2.258;2022-09-16T18:21:10;15.40;40.80
44533;DHT22;48673;53.016;-2.258;2022-09-16T18:23:41;15.00;41.60
44533;DHT22;48673;53.016;-2.258;2022-09-16T18:26:12;14.80;42.30
44533;DHT22;48673;53.016;-2.258;2022-09-16T18:28:42;14.40;43.10
44533;DHT22;48673;53.016;-2.258;2022-09-16T18:31:31;14.10;43.80
44533;DHT22;48673;53.016;-2.258;2022-09-16T18:34:06;13.80;44.50
44533;DHT22;48673;53.016;-2.258;2022-09-16T18:36:40;13.60;45.40
44533;DHT22;48673;53.016;-2.258;2022-09-16T18:39:14;13.30;46.10
44533;DHT22;48673;53.016;-2.258;2022-09-16T18:41:44;13.10;46.70
44533;DHT22;48673;53.016;-2.258;2022-09-16T18:44:30;12.90;47.40
44533;DHT22;48673;53.016;-2.258;2022-09-16T18:46:58;12.60;48.20
44533;DHT22;48673;53.016;-2.258;2022-09-16T18:49:26;12.40;48.80
44533;DHT22;48673;53.016;-2.258;2022-09-16T18:52:02;12.30;49.60
44533;DHT22;48673;53.016;-2.258;2022-09-16T18:54:32;12.10;50.20
44533;DHT22;48673;53.016;-2.258;2022-09-16T18:57:00;11.90;51.10
44533;DHT22;48673;53.016;-2.258;2022-09-16T18:59:30;11.80;51.70
44533;DHT22;48673;53.016;-2.258;2022-09-16T19:02:00;11.70;52.20
44533;DHT22;48673;53.016;-2.258;2022-09-16T19:04:31;11.50;52.50
44533;DHT22;48673;53.016;-2.258;2022-09-16T19:07:05;11.40;53.10
44533;DHT22;48673;53.016;-2.258;2022-09-16T19:09:40;11.40;53.60
44533;DHT22;48673;53.016;-2.258;2022-09-16T19:12:09;11.30;53.80
44533;DHT22;48673;53.016;-2.258;2022-09-16T19:14:38;11.30;54.40
44533;DHT22;48673;53.016;-2.258;2022-09-16T19:17:11;11.30;54.80